createdAt,value
2022-12-08T00:00:38.729Z,100180.28
2022-12-08T00:03:05.222Z,100181.25
2022-12-08T00:05:31.681Z,100175.91
2022-12-08T00:08:00.325Z,100174.91
2022-12-08T00:10:48.411Z,100171.38
2022-12-08T00:13:12.946Z,100164.19
2022-12-08T00:18:25.715Z,100171.38
2022-12-08T00:20:54.442Z,100160.66
2022-12-08T00:23:20.729Z,100160.66
2022-12-08T00:25:47.240Z,100160.66
2022-12-08T00:28:13.623Z,100159.09
2022-12-08T00:30:40.256Z,100156.41
2022-12-08T00:33:06.572Z,100153.72
2022-12-08T00:35:38.724Z,100151.03
2022-12-08T00:38:07.888Z,100145.69
2022-12-08T00:40:34.173Z,100143.16
2022-12-08T00:43:00.529Z,100139.47
2022-12-08T00:45:26.825Z,100133.28
2022-12-08T00:47:53.175Z,100132.28
2022-12-08T00:50:19.583Z,100134.25
2022-12-08T00:52:47.175Z,100130.72
2022-12-08T00:55:13.499Z,100131.59
2022-12-08T00:57:39.806Z,100136.06
2022-12-08T01:00:07.018Z,100126.22
2022-12-08T01:02:33.471Z,100119.09
2022-12-08T01:04:59.765Z,100119.09
2022-12-08T01:07:26.052Z,100122.53
2022-12-08T01:09:53.708Z,100120.88
2022-12-08T01:12:19.987Z,100120.94
2022-12-08T01:14:46.328Z,100115.59
2022-12-08T01:17:12.633Z,100112.91
2022-12-08T01:19:39.005Z,100111.06
2022-12-08T01:22:05.413Z,100116.56
2022-12-08T01:24:31.714Z,100121.94
2022-12-08T01:26:59.294Z,100128.16
2022-12-08T01:29:26.349Z,100122.78
2022-12-08T01:31:52.732Z,100116.56
2022-12-08T01:34:19.008Z,100116.44
2022-12-08T01:36:45.321Z,100111.06
2022-12-08T01:39:14.185Z,100105.00
2022-12-08T01:41:40.494Z,100103.31
2022-12-08T01:44:16.656Z,100101.59
2022-12-08T01:46:45.194Z,100102.44
2022-12-08T01:49:13.833Z,100092.59
2022-12-08T01:51:42.364Z,100091.72
2022-12-08T01:54:09.225Z,100091.72
2022-12-08T01:56:42.070Z,100101.59
2022-12-08T01:59:09.468Z,100107.97
2022-12-08T02:01:35.963Z,100098.94
2022-12-08T02:04:03.883Z,100097.25
2022-12-08T02:06:32.475Z,100096.41
2022-12-08T02:09:00.448Z,100093.56
2022-12-08T02:11:26.787Z,100093.72
2022-12-08T02:13:53.993Z,100096.50
2022-12-08T02:16:29.131Z,100089.19
2022-12-08T02:19:29.696Z,100101.88
2022-12-08T02:21:55.731Z,100090.88
2022-12-08T02:24:28.002Z,100086.00
2022-12-08T02:27:08.928Z,100080.06
2022-12-08T02:29:45.126Z,100089.25
2022-12-08T02:32:20.623Z,100078.84
2022-12-08T02:34:53.191Z,100083.53
2022-12-08T02:37:26.450Z,100078.56
2022-12-08T02:39:58.005Z,100077.31
2022-12-08T02:42:27.419Z,100072.38
2022-12-08T02:44:57.749Z,100070.97
2022-12-08T02:47:25.014Z,100069.69
2022-12-08T02:49:54.481Z,100072.81
2022-12-08T02:52:30.676Z,100065.03
2022-12-08T02:54:58.249Z,100055.72
2022-12-08T02:57:31.207Z,100059.09
2022-12-08T03:00:04.577Z,100055.44
2022-12-08T03:02:39.325Z,100056.13
2022-12-08T03:05:13.681Z,100051.47
2022-12-08T03:07:44.435Z,100049.50
2022-12-08T03:10:12.366Z,100044.69
2022-12-08T03:12:42.779Z,100044.53
2022-12-08T03:15:11.191Z,100045.09
2022-12-08T03:17:39.195Z,100039.47
2022-12-08T03:20:10.923Z,100035.66
2022-12-08T03:22:39.361Z,100029.97
2022-12-08T03:25:06.208Z,100026.31
2022-12-08T03:27:32.626Z,100021.63
2022-12-08T03:30:00.175Z,100011.63
2022-12-08T03:32:29.195Z,100011.31
2022-12-08T03:34:56.427Z,100007.50
2022-12-08T03:37:24.190Z,99999.28
2022-12-08T03:39:50.504Z,100005.94
2022-12-08T03:42:16.878Z,100009.47
2022-12-08T03:44:43.165Z,100004.78
2022-12-08T03:47:09.460Z,100005.50
2022-12-08T03:49:35.757Z,99999.97
2022-12-08T03:52:02.215Z,99989.22
2022-12-08T03:54:29.780Z,99993.44
2022-12-08T03:56:56.059Z,99989.63
2022-12-08T03:59:22.339Z,99984.94
2022-12-08T04:01:48.757Z,99979.56
2022-12-08T04:04:15.047Z,99981.13
2022-12-08T04:06:41.321Z,99981.00
2022-12-08T04:09:07.735Z,99982.50
2022-12-08T04:11:35.345Z,99978.84
2022-12-08T04:14:01.697Z,99980.66
2022-12-08T04:16:28.133Z,99975.00
2022-12-08T04:18:54.546Z,99972.19
2022-12-08T04:21:20.851Z,99968.50
2022-12-08T04:23:47.759Z,99965.50
2022-12-08T04:26:14.382Z,99958.47
2022-12-08T04:28:42.162Z,99957.16
2022-12-08T04:31:08.778Z,99957.84
2022-12-08T04:33:35.193Z,99953.47
2022-12-08T04:36:01.502Z,99948.94
2022-12-08T04:38:27.774Z,99957.84
2022-12-08T04:40:54.267Z,99950.47
2022-12-08T04:43:20.572Z,99953.84
2022-12-08T04:45:48.220Z,99950.03
2022-12-08T04:48:14.736Z,99942.97
2022-12-08T04:50:41.840Z,99945.34
2022-12-08T04:53:08.875Z,99940.81
2022-12-08T04:55:37.853Z,99942.50
2022-12-08T04:58:04.155Z,99944.22
2022-12-08T05:00:30.466Z,99945.72
2022-12-08T05:02:58.197Z,99942.91
2022-12-08T05:05:24.567Z,99926.63
2022-12-08T05:07:50.870Z,99931.88
2022-12-08T05:10:17.228Z,99929.19
2022-12-08T05:12:43.691Z,99935.22
2022-12-08T05:15:10.095Z,99933.38
2022-12-08T05:17:36.387Z,99932.53
2022-12-08T05:20:04.382Z,99926.03
2022-12-08T05:22:30.923Z,99920.47
2022-12-08T05:24:57.277Z,99920.47
2022-12-08T05:27:23.729Z,99923.16
2022-12-08T05:29:49.976Z,99924.91
2022-12-08T05:32:16.357Z,99919.53
2022-12-08T05:34:42.678Z,99920.91
2022-12-08T05:37:10.304Z,99919.22
2022-12-08T05:39:36.712Z,99920.91
2022-12-08T05:42:03.321Z,99917.41
2022-12-08T05:44:29.802Z,99918.22
2022-12-08T05:46:56.149Z,99919.03
2022-12-08T05:49:22.466Z,99911.38
2022-12-08T05:51:48.778Z,99907.78
2022-12-08T05:54:17.033Z,99915.59
2022-12-08T05:56:43.371Z,99907.84
2022-12-08T05:59:09.774Z,99911.81
2022-12-08T06:01:36.175Z,99910.59
2022-12-08T06:04:03.703Z,99903.38
2022-12-08T06:06:30.568Z,99904.78
2022-12-08T06:08:57.149Z,99897.75
2022-12-08T06:11:26.596Z,99907.09
2022-12-08T06:13:53.108Z,99905.66
2022-12-08T06:16:20.090Z,99904.25
2022-12-08T06:18:46.409Z,99904.41
2022-12-08T06:21:13.466Z,99900.31
2022-12-08T06:23:39.810Z,99894.38
2022-12-08T06:26:07.289Z,99895.22
2022-12-08T06:28:35.224Z,99882.22
2022-12-08T06:31:06.630Z,99886.75
2022-12-08T06:33:32.921Z,99886.25
2022-12-08T06:35:59.269Z,99877.56
2022-12-08T06:38:25.560Z,99874.97
2022-12-08T06:40:53.228Z,99878.03
2022-12-08T06:43:21.030Z,99881.28
2022-12-08T06:45:49.147Z,99872.06
2022-12-08T06:48:15.741Z,99872.47
2022-12-08T06:50:42.106Z,99876.69
2022-12-08T06:53:08.446Z,99874.72
2022-12-08T06:55:57.827Z,99868.50
2022-12-08T06:58:21.028Z,99871.84
2022-12-08T07:00:48.639Z,99872.56
2022-12-08T07:03:15.120Z,99875.09
2022-12-08T07:05:41.556Z,99876.78
2022-12-08T07:08:08.593Z,99871.25
2022-12-08T07:10:35.147Z,99876.47
2022-12-08T07:13:01.742Z,99872.81
2022-12-08T07:15:28.022Z,99868.81
2022-12-08T07:17:59.845Z,99875.84
2022-12-08T07:20:27.392Z,99866.09
2022-12-08T07:22:53.933Z,99866.88
2022-12-08T07:25:20.405Z,99864.97
2022-12-08T07:27:46.737Z,99873.16
2022-12-08T07:30:13.538Z,99863.34
2022-12-08T07:32:39.854Z,99864.47
2022-12-08T07:35:08.950Z,99869.66
2022-12-08T07:37:35.627Z,99864.31
2022-12-08T07:40:02.240Z,99862.34
2022-12-08T07:42:32.754Z,99858.81
2022-12-08T07:44:59.076Z,99852.91
2022-12-08T07:47:25.397Z,99851.78
2022-12-08T07:49:51.741Z,99842.25
2022-12-08T07:52:19.547Z,99845.09
2022-12-08T07:54:45.841Z,99841.25
2022-12-08T07:57:12.252Z,99838.88
2022-12-08T07:59:38.562Z,99835.50
2022-12-08T08:02:23.683Z,99849.22
2022-12-08T08:04:51.142Z,99841.47
2022-12-08T08:07:18.944Z,99848.50
2022-12-08T08:09:45.275Z,99841.75
2022-12-08T08:12:30.098Z,99845.28
2022-12-08T08:14:57.452Z,99843.47
2022-12-08T08:17:24.055Z,99837.09
2022-12-08T08:19:50.509Z,99837.69
2022-12-08T08:22:16.838Z,99832.72
2022-12-08T08:24:45.338Z,99834.66
2022-12-08T08:27:11.836Z,99834.94
2022-12-08T08:29:38.171Z,99831.81
2022-12-08T08:32:04.510Z,99827.03
2022-12-08T08:34:30.899Z,99834.41
2022-12-08T08:36:57.274Z,99839.22
2022-12-08T08:39:23.904Z,99843.59
2022-12-08T08:41:51.682Z,99825.94
2022-12-08T08:44:18.062Z,99831.00
2022-12-08T08:46:44.490Z,99817.59
2022-12-08T08:49:10.882Z,99822.41
2022-12-08T08:51:37.189Z,99814.22
2022-12-08T08:54:03.542Z,99817.47
2022-12-08T08:56:30.196Z,99815.19
2022-12-08T08:58:57.828Z,99815.19
2022-12-08T09:01:25.534Z,99806.19
2022-12-08T09:03:52.197Z,99812.69
2022-12-08T09:06:19.338Z,99811.53
2022-12-08T09:08:46.149Z,99810.00
2022-12-08T09:11:12.709Z,99813.25
2022-12-08T09:13:38.995Z,99806.25
2022-12-08T09:16:07.890Z,99812.00
2022-12-08T09:18:34.634Z,99802.47
2022-12-08T09:21:03.920Z,99802.88
2022-12-08T09:23:35.203Z,99808.81
2022-12-08T09:26:02.592Z,99812.50
2022-12-08T09:28:29.107Z,99808.75
2022-12-08T09:30:55.715Z,99809.81
2022-12-08T09:33:23.512Z,99807.53
2022-12-08T09:35:49.829Z,99802.84
2022-12-08T09:38:16.193Z,99798.41
2022-12-08T09:40:47.643Z,99791.56
2022-12-08T09:43:24.108Z,99791.09
2022-12-08T09:45:51.159Z,99798.00
2022-12-08T09:48:19.107Z,99796.72
2022-12-08T09:50:49.354Z,99788.19
2022-12-08T09:53:19.488Z,99786.81
2022-12-08T09:55:48.801Z,99794.41
2022-12-08T09:58:20.145Z,99790.50
2022-12-08T10:00:46.860Z,99786.88
2022-12-08T10:03:16.552Z,99792.66
2022-12-08T10:05:47.088Z,99798.38
2022-12-08T10:08:18.947Z,99797.06
2022-12-08T10:10:47.520Z,99789.53
2022-12-08T10:13:20.539Z,99798.97
2022-12-08T10:15:50.803Z,99794.13
2022-12-08T10:18:18.261Z,99791.94
2022-12-08T10:20:45.748Z,99794.50
2022-12-08T10:23:19.156Z,99791.53
2022-12-08T10:25:48.000Z,99781.19
2022-12-08T10:28:14.437Z,99781.16
2022-12-08T10:30:41.049Z,99777.06
2022-12-08T10:33:13.288Z,99771.91
2022-12-08T10:35:44.483Z,99764.16
2022-12-08T10:38:17.025Z,99758.16
2022-12-08T10:40:45.840Z,99754.72
2022-12-08T10:43:17.404Z,99755.63
2022-12-08T10:45:43.804Z,99749.44
2022-12-08T10:48:15.975Z,99744.25
2022-12-08T10:50:43.402Z,99743.25
2022-12-08T10:53:12.320Z,99734.69
2022-12-08T10:55:40.615Z,99738.16
2022-12-08T10:58:22.725Z,99735.97
2022-12-08T11:00:52.201Z,99735.88
2022-12-08T11:03:22.705Z,99735.47
2022-12-08T11:05:49.527Z,99735.13
2022-12-08T11:08:16.409Z,99733.72
2022-12-08T11:10:44.045Z,99730.50
2022-12-08T11:13:17.064Z,99722.75
2022-12-08T11:15:44.475Z,99718.53
2022-12-08T11:18:21.060Z,99718.00
2022-12-08T11:20:47.503Z,99719.31
2022-12-08T11:23:22.036Z,99715.78
2022-12-08T11:25:49.257Z,99714.25
2022-12-08T11:28:16.520Z,99702.06
2022-12-08T11:30:44.939Z,99702.31
2022-12-08T11:33:14.936Z,99694.09
2022-12-08T11:35:44.301Z,99685.13
2022-12-08T11:38:21.932Z,99685.91
2022-12-08T11:40:50.170Z,99685.44
2022-12-08T11:43:19.062Z,99680.06
2022-12-08T11:45:46.892Z,99669.00
2022-12-08T11:48:16.540Z,99670.34
2022-12-08T11:50:47.990Z,99669.03
2022-12-08T11:53:19.774Z,99662.00
2022-12-08T11:55:50.199Z,99661.34
2022-12-08T11:58:18.507Z,99651.06
2022-12-08T12:00:44.883Z,99652.59
2022-12-08T12:03:17.767Z,99649.91
2022-12-08T12:08:46.205Z,99651.56
2022-12-08T12:11:16.648Z,99655.97
2022-12-08T12:13:54.320Z,99654.19
2022-12-08T12:16:35.572Z,99645.63
2022-12-08T12:19:04.577Z,99642.22
2022-12-08T12:21:34.695Z,99641.91
2022-12-08T12:24:04.737Z,99634.88
2022-12-08T12:26:32.000Z,99633.34
2022-12-08T12:29:00.986Z,99627.13
2022-12-08T12:31:29.405Z,99627.13
2022-12-08T12:34:03.971Z,99619.59
2022-12-08T12:36:31.981Z,99620.09
2022-12-08T12:38:58.762Z,99618.09
2022-12-08T12:41:26.227Z,99609.00
2022-12-08T12:44:07.311Z,99604.31
2022-12-08T12:46:52.394Z,99601.31
2022-12-08T12:49:28.532Z,99606.38
2022-12-08T12:51:56.167Z,99613.13
2022-12-08T12:54:23.492Z,99603.34
2022-12-08T12:56:51.118Z,99606.03
2022-12-08T12:59:27.294Z,99616.66
2022-12-08T13:01:54.874Z,99599.47
2022-12-08T13:04:29.252Z,99599.66
2022-12-08T13:06:57.149Z,99600.66
2022-12-08T13:09:27.399Z,99597.97
2022-12-08T13:11:55.710Z,99595.25
2022-12-08T13:14:27.388Z,99603.34
2022-12-08T13:16:55.045Z,99592.56
2022-12-08T13:19:21.944Z,99584.69
2022-12-08T13:21:48.293Z,99597.81
2022-12-08T13:24:26.622Z,99593.25
2022-12-08T13:27:07.791Z,99584.16
2022-12-08T13:29:34.434Z,99590.06
2022-12-08T13:32:01.452Z,99585.38
2022-12-08T13:34:31.463Z,99577.94
2022-12-08T13:37:07.817Z,99572.56
2022-12-08T13:39:40.890Z,99568.72
2022-12-08T13:42:14.033Z,99573.25
2022-12-08T13:47:34.857Z,99568.97
2022-12-08T13:58:30.067Z,99556.78
2022-12-08T14:01:00.268Z,99549.56
2022-12-08T14:03:26.895Z,99552.75
2022-12-08T14:11:31.474Z,99548.19
2022-12-08T14:13:57.895Z,99542.63
2022-12-08T14:16:27.933Z,99539.44
2022-12-08T14:18:54.329Z,99539.59
2022-12-08T14:21:21.804Z,99538.41
2022-12-08T14:23:48.487Z,99537.66
2022-12-08T14:26:14.871Z,99537.34
2022-12-08T14:28:44.997Z,99534.69
2022-12-08T14:31:11.961Z,99530.47
2022-12-08T14:33:38.490Z,99529.28
2022-12-08T14:36:05.155Z,99526.94
2022-12-08T14:38:31.791Z,99535.41
2022-12-08T14:41:01.052Z,99533.38
2022-12-08T14:43:27.889Z,99534.06
2022-12-08T14:45:57.263Z,99537.56
2022-12-08T14:48:24.871Z,99540.44
2022-12-08T14:50:57.901Z,99536.75
2022-12-08T14:53:25.374Z,99534.75
2022-12-08T14:55:52.110Z,99530.00
2022-12-08T14:58:20.663Z,99529.81
2022-12-08T15:00:48.486Z,99534.97
2022-12-08T15:03:17.430Z,99535.84
2022-12-08T15:05:44.398Z,99527.53
2022-12-08T15:08:10.991Z,99533.44
2022-12-08T15:10:37.383Z,99524.91
2022-12-08T15:13:05.755Z,99525.53
2022-12-08T15:15:44.456Z,99525.03
2022-12-08T15:18:12.127Z,99527.88
2022-12-08T15:20:41.638Z,99520.31
2022-12-08T15:23:18.941Z,99520.69
2022-12-08T15:25:45.586Z,99526.06
2022-12-08T15:28:12.778Z,99522.34
2022-12-08T15:30:39.069Z,99515.47
2022-12-08T15:33:05.511Z,99519.53
2022-12-08T15:35:35.956Z,99513.81
2022-12-08T15:38:11.974Z,99516.19
2022-12-08T15:40:38.299Z,99521.56
2022-12-08T15:43:04.707Z,99519.53
2022-12-08T15:45:31.686Z,99529.63
2022-12-08T15:47:58.058Z,99520.22
2022-12-08T15:50:24.502Z,99524.25
2022-12-08T15:52:51.292Z,99521.22
2022-12-08T15:55:20.852Z,99515.53
2022-12-08T15:58:51.929Z,99509.00
2022-12-08T16:00:52.472Z,99505.28
2022-12-08T16:04:02.718Z,99511.69
2022-12-08T16:07:04.379Z,99505.59
2022-12-08T16:09:11.111Z,99510.28
2022-12-08T16:12:05.315Z,99512.81
2022-12-08T16:15:39.747Z,99510.78
2022-12-08T16:17:14.350Z,99512.81
2022-12-08T16:19:41.267Z,99515.34
2022-12-08T16:25:14.705Z,99513.16
2022-12-08T16:28:12.417Z,99508.78
2022-12-08T16:30:32.061Z,99511.47
2022-12-08T16:32:58.533Z,99516.72
2022-12-08T16:35:24.996Z,99511.19
2022-12-08T16:37:51.334Z,99511.00
2022-12-08T16:40:17.720Z,99511.19
2022-12-08T16:42:44.077Z,99502.94
2022-12-08T16:45:13.134Z,99501.06
2022-12-08T16:47:40.523Z,99498.22
2022-12-08T16:50:08.650Z,99500.09
2022-12-08T16:52:35.046Z,99500.91
2022-12-08T16:55:01.454Z,99497.22
2022-12-08T16:57:27.853Z,99501.56
2022-12-08T16:59:54.157Z,99496.19
2022-12-08T17:02:21.782Z,99489.13
2022-12-08T17:04:48.191Z,99488.28
2022-12-08T17:07:14.634Z,99488.28
2022-12-08T17:09:40.962Z,99486.78
2022-12-08T17:12:07.323Z,99487.97
2022-12-08T17:14:33.971Z,99483.53
2022-12-08T17:17:00.374Z,99491.13
2022-12-08T17:19:28.248Z,99487.91
2022-12-08T17:21:54.796Z,99487.25
2022-12-08T17:24:22.259Z,99488.56
2022-12-08T17:26:49.047Z,99490.75
2022-12-08T17:29:15.544Z,99489.28
2022-12-08T17:31:41.912Z,99488.91
2022-12-08T17:34:08.326Z,99482.38
2022-12-08T17:36:35.937Z,99480.50
2022-12-08T17:39:02.465Z,99485.53
2022-12-08T17:41:29.307Z,99488.72
2022-12-08T17:43:55.669Z,99480.47
2022-12-08T17:46:22.315Z,99473.75
2022-12-08T17:48:48.702Z,99473.06
2022-12-08T17:51:15.189Z,99468.38
2022-12-08T17:53:42.850Z,99474.22
2022-12-08T17:56:14.549Z,99467.34
2022-12-08T17:58:40.895Z,99483.63
2022-12-08T18:01:07.801Z,99481.94
2022-12-08T18:03:34.191Z,99483.28
2022-12-08T18:06:03.540Z,99478.22
2022-12-08T18:08:29.879Z,99479.38
2022-12-08T18:10:57.744Z,99473.34
2022-12-08T18:13:24.079Z,99481.41
2022-12-08T18:15:50.601Z,99481.69
2022-12-08T18:18:17.091Z,99487.22
2022-12-08T18:20:43.366Z,99488.06
2022-12-08T18:23:09.805Z,99483.88
2022-12-08T18:25:36.143Z,99484.03
2022-12-08T18:28:04.057Z,99486.03
2022-12-08T18:30:30.432Z,99486.03
2022-12-08T18:32:57.575Z,99479.13
2022-12-08T18:35:24.070Z,99491.88
2022-12-08T18:37:50.380Z,99490.72
2022-12-08T18:40:17.485Z,99484.50
2022-12-08T18:42:43.947Z,99490.91
2022-12-08T18:45:11.800Z,99481.63
2022-12-08T18:47:39.262Z,99475.25
2022-12-08T18:50:07.768Z,99485.00
2022-12-08T18:52:34.430Z,99479.97
2022-12-08T18:55:08.226Z,99481.13
2022-12-08T18:57:36.132Z,99474.72
2022-12-08T19:00:03.716Z,99475.03
2022-12-08T19:02:31.767Z,99473.53
2022-12-08T19:04:58.212Z,99468.00
2022-12-08T19:07:24.547Z,99472.72
2022-12-08T19:09:50.859Z,99473.69
2022-12-08T19:12:17.190Z,99467.66
2022-12-08T19:14:43.575Z,99476.56
2022-12-08T19:17:09.936Z,99475.03
2022-12-08T19:19:37.544Z,99474.19
2022-12-08T19:22:04.719Z,99475.19
2022-12-08T19:24:31.009Z,99483.25
2022-12-08T19:26:57.428Z,99480.56
2022-12-08T19:29:23.780Z,99477.03
2022-12-08T19:31:50.158Z,99480.72
2022-12-08T19:34:16.564Z,99472.81
2022-12-08T19:36:44.340Z,99475.50
2022-12-08T19:39:13.027Z,99477.34
2022-12-08T19:41:39.327Z,99487.25
2022-12-08T19:44:05.634Z,99473.97
2022-12-08T19:46:36.059Z,99466.94
2022-12-08T19:49:06.493Z,99469.75
2022-12-08T19:51:32.818Z,99474.28
2022-12-08T19:54:00.462Z,99466.41
2022-12-08T19:56:26.814Z,99466.41
2022-12-08T19:58:53.259Z,99469.09
2022-12-08T20:01:19.622Z,99458.50
2022-12-08T20:03:45.985Z,99469.25
2022-12-08T20:06:13.264Z,99462.38
2022-12-08T20:08:39.730Z,99455.16
2022-12-08T20:11:07.452Z,99459.69
2022-12-08T20:13:33.774Z,99461.50
2022-12-08T20:16:00.142Z,99459.31
2022-12-08T20:18:26.583Z,99467.34
2022-12-08T20:20:52.884Z,99463.00
2022-12-08T20:23:19.221Z,99463.00
2022-12-08T20:25:46.043Z,99465.69
2022-12-08T20:28:14.154Z,99461.31
2022-12-08T20:30:41.445Z,99453.41
2022-12-08T20:33:07.787Z,99460.81
2022-12-08T20:35:34.282Z,99450.06
2022-12-08T20:38:00.606Z,99452.75
2022-12-08T20:40:26.926Z,99446.50
2022-12-08T20:42:53.246Z,99448.53
2022-12-08T20:45:21.058Z,99460.09
2022-12-08T20:47:47.397Z,99462.97
2022-12-08T20:50:14.150Z,99466.63
2022-12-08T20:52:40.917Z,99461.25
2022-12-08T20:55:07.904Z,99459.59
2022-12-08T20:57:34.413Z,99455.22
2022-12-08T21:00:01.002Z,99450.84
2022-12-08T21:02:29.274Z,99451.84
2022-12-08T21:04:55.864Z,99458.22
2022-12-08T21:07:22.478Z,99452.00
2022-12-08T21:09:49.347Z,99455.69
2022-12-08T21:12:15.976Z,99453.84
2022-12-08T21:14:42.484Z,99459.38
2022-12-08T21:17:09.287Z,99455.84
2022-12-08T21:19:37.739Z,99450.63
2022-12-08T21:22:04.390Z,99450.63
2022-12-08T21:24:34.240Z,99445.44
2022-12-08T21:27:01.247Z,99458.00
2022-12-08T21:29:27.731Z,99453.66
2022-12-08T21:31:56.065Z,99446.56
2022-12-08T21:34:22.760Z,99446.56
2022-12-08T21:36:50.481Z,99443.91
2022-12-08T21:39:16.756Z,99443.22
2022-12-08T21:41:43.766Z,99436.00
2022-12-08T21:44:10.972Z,99446.75
2022-12-08T21:46:38.092Z,99441.38
2022-12-08T21:49:05.107Z,99437.84
2022-12-08T21:51:31.740Z,99438.84
2022-12-08T21:53:59.688Z,99432.63
2022-12-08T21:56:26.078Z,99442.53
2022-12-08T21:58:53.489Z,99441.69
2022-12-08T22:01:20.076Z,99447.06
2022-12-08T22:03:46.617Z,99440.84
2022-12-08T22:06:13.919Z,99433.81
2022-12-08T22:08:40.800Z,99432.06
2022-12-08T22:11:09.716Z,99432.81
2022-12-08T22:13:37.036Z,99427.72
2022-12-08T22:16:04.802Z,99427.53
2022-12-08T22:18:31.407Z,99419.66
2022-12-08T22:20:58.119Z,99419.66
2022-12-08T22:23:24.632Z,99420.69
2022-12-08T22:25:56.092Z,99421.50
2022-12-08T22:28:23.866Z,99428.72
2022-12-08T22:30:50.259Z,99419.84
2022-12-08T22:33:16.617Z,99427.03
2022-12-08T22:35:43.018Z,99422.53
2022-12-08T22:38:09.469Z,99422.53
2022-12-08T22:40:35.817Z,99419.66
2022-12-08T22:43:02.255Z,99416.16
2022-12-08T22:45:30.045Z,99419.84
2022-12-08T22:47:56.451Z,99418.00
2022-12-08T22:50:22.864Z,99417.16
2022-12-08T22:52:49.130Z,99418.00
2022-12-08T22:55:15.464Z,99420.81
2022-12-08T22:57:41.936Z,99422.53
2022-12-08T23:00:09.295Z,99420.69
2022-12-08T23:02:37.902Z,99415.31
2022-12-08T23:05:04.823Z,99411.78
2022-12-08T23:07:31.701Z,99413.47
2022-12-08T23:09:58.134Z,99415.31
2022-12-08T23:12:24.944Z,99407.25
2022-12-08T23:14:51.309Z,99417.16
2022-12-08T23:17:17.912Z,99409.25
2022-12-08T23:19:45.595Z,99402.88
2022-12-08T23:22:11.971Z,99409.09
2022-12-08T23:24:38.538Z,99402.72
2022-12-08T23:27:05.093Z,99404.41
2022-12-08T23:29:31.546Z,99401.06
2022-12-08T23:31:57.998Z,99400.03
2022-12-08T23:34:24.611Z,99401.06
2022-12-08T23:36:52.187Z,99395.69
2022-12-08T23:39:18.615Z,99392.00
2022-12-08T23:41:45.089Z,99389.13
2022-12-08T23:44:11.536Z,99398.91
2022-12-08T23:46:38.033Z,99399.03
2022-12-08T23:49:04.415Z,99399.03
2022-12-08T23:51:30.861Z,99404.13
2022-12-08T23:53:58.442Z,99399.03
2022-12-08T23:56:30.038Z,99397.91
2022-12-08T23:58:57.109Z,99406.81
